首页
METAR-TAF:

METAR-TAF

机场 :

萨尔茨堡沃尔夫冈·阿马多伊斯·莫扎特机场

萨尔茨堡, 奥地利

纬度: 47-48N, 经度: 013-00E, 海拔: 430米

当前天气观测

该预报发布于40分钟前的16:50 UTC
风速2节,风向多变
温度 0°C
湿度 93%
气压 1023 hPa
能见度10公里或以上
1500米以下无云,无积雨云

METAR: LOWS 241650Z VRB02KT CAVOK 00/M01 Q1023 NOSIG

时间: 18:30 (17:30 UTC)

预报

该预报发布于6小时和15分钟前的11:15 UTC
预报有效从24日的 12点(UTC)到 25日的 12点(UTC)
风速5节,风向南转南东
能见度10公里或以上
1500米以下无云,无积雨云
短暂存在
从 24日的 12点(UTC)到 24日的 16点(UTC)
风速4节,风向北转西北
短暂存在
从 24日的 18点(UTC)到 25日的 08点(UTC)
风速2节,风向多变
能見度: 2500
少量云层高于300英尺
轻雾
几率 30% :
短暂存在
从 25日的 00点(UTC)到 25日的 07点(UTC)
能見度: 0300
层高于300英尺
冻雾
成为
从 25日的 09点(UTC)到 25日的 11点(UTC)
风速5节,风向

TAF: LOWS 241115Z 2412/2512 15005KT CAVOK TX05/2414Z TNM03/2501Z TEMPO 2412/2416 34004KT TEMPO 2418/2508 VRB02KT 2500 BR FEW003 PROB30 TEMPO 2500/2507 0300 FZFG VV003 BECMG 2509/2511 01005KT

超过4000个机场的气象观测和天气预报(METAR&TAF报告)。

可查询的气象台以黄色和红色小点在地图上表示。

将鼠标移到小点上方,可查看气象台名称。

然后点击查看天气观测和预报。

如需切换地图:点击带黑十字的绿色按钮放大地图;点击带横线的绿色按钮缩小地图;或者点击绿色箭头查看邻近地区的地图。


METAR-TAF: